International Virtual Aviation Organisation

Russian Federation and Kazakhstan MCD

 

Карточка аэропорта UMKK

Внимание!
Информация на этой странице в стадии наполнения.
Если вы не увидели какой-то информации, или заметили неточность - пожалуйста сообщите нам!
Спасибо!
Команда RU-STAFF
Название аэропортаХраброво
Название аэропорта (англ.)Khrabrovo
Превышение43 ft. (13.1 m.)
Координаты54°53.4', 20°35.55'
Высота перехода1000m
Эшелон переходаQFE>=742mm:FL050; QFE<742:FL060
Коды ответчика6620-6637
Зона ОрВДКалининград РПИ (UMKK)
Данные METARUMKK 270330Z 31006MPS 9999 BKN022 08/04 Q1013 R24/290095 NOSIG RMK QFE759/1012
Проноз погоды (TAF)UMKK 270155Z 2703/2803 29007G12MPS 9999 BKN016 TEMPO 2703/2707 32009G14MPS 3500 -SHRA SCT007 BKN012CB BECMG 2707/2709 32006G11MPS TEMPO 2709/2718 -SHRA SCT016CB TEMPO 2718/2724 3100 -SHRA FEW003 BKN012CB BECMG 2721/2723 01003G10MPS
NOTAMshow/hide NOTAM
AWOS   TABLE

Информация о ВПП

ВПП Длина ВПП (м.) Покрытие Курс ВПП Частота ILS
063350Асфальтобетон60110.3
243350Асфальтобетон240109.5

Диспетчерские позиции

Позывной Наименование органа УВД Частота
UMKK_APPКалининград-Подход126.0
UMKK_TWRКалининград-Вышка127.2



Спутниковое изображение